Terminal Aerodrome Forecast
Issued by NWS

Home | Current Version | Previous Version | Text Only | Print | Product List | Glossary On
Versions: 1 2 3 4 5 6 7 8 9 10 11 12
043
FTUS46 KSGX 241127
TAFTRM
TAF
KTRM 241127Z 2412/2512 35007KT P6SM SKC
     FM241900 32010G18KT P6SM SKC
     FM250100 33006KT P6SM SKC=

USA.gov is the U.S. government's official web portal to all federal, state and local government web resources and services.